Time;durP1;ratioP1;P1;durP2;ratioP2;P2;SDS_P1;SDS_P2;PMS_P1;PMS_P2;Temp;Humidity;BMP_temperature;BMP_pressure;BME280_temperature;BME280_humidity;BME280_pressure;Samples;Min_cycle;Max_cycle;Signal;HPM_P1;HPM_P2
2022/06/03 00:00:34;;;;;;;7.47;6.40;;;11.90;99.90;;;;;;5023899;28;20133;-73
2022/06/03 00:03:07;;;;;;;10.30;5.57;;;11.80;99.90;;;;;;5022823;28;20033;-74
2022/06/03 00:05:46;;;;;;;5.97;5.45;;;11.70;99.90;;;;;;5024738;28;20028;-73
2022/06/03 00:08:30;;;;;;;6.75;5.65;;;11.70;99.90;;;;;;5023581;28;20045;-73
2022/06/03 00:11:12;;;;;;;6.88;5.63;;;11.60;99.90;;;;;;5023021;28;20030;-73
2022/06/03 00:13:45;;;;;;;7.43;5.68;;;11.70;99.90;;;;;;5015883;28;20127;-73
2022/06/03 00:16:26;;;;;;;10.35;5.65;;;11.80;99.90;;;;;;5034156;28;20057;-73
2022/06/03 00:19:12;;;;;;;5.97;5.37;;;11.80;99.90;;;;;;5025328;28;20557;-74
2022/06/03 00:21:41;;;;;;;7.95;4.45;;;11.90;99.90;;;;;;5022673;28;20484;-74
2022/06/03 00:24:25;;;;;;;6.55;5.13;;;11.90;99.90;;;;;;5024174;28;20437;-73
2022/06/03 00:27:07;;;;;;;5.85;5.25;;;11.90;99.90;;;;;;5021801;28;20029;-73
2022/06/03 00:29:45;;;;;;;8.38;5.53;;;11.80;99.90;;;;;;5029612;28;20032;-74
2022/06/03 00:32:23;;;;;;;8.35;5.50;;;11.80;99.90;;;;;;5022678;28;20029;-73
2022/06/03 00:34:52;;;;;;;6.60;5.88;;;11.70;99.90;;;;;;5031799;28;20029;-73
2022/06/03 00:37:31;;;;;;;7.25;5.45;;;11.60;99.90;;;;;;5011949;28;20087;-73
2022/06/03 00:40:17;;;;;;;8.77;5.95;;;11.60;99.90;;;;;;5020786;28;20037;-73
2022/06/03 00:43:20;;;;;;;10.70;6.57;;;11.40;99.90;;;;;;5029119;28;20104;-74
2022/06/03 00:46:20;;;;;;;8.00;5.80;;;11.30;99.90;;;;;;5031264;28;20078;-73
2022/06/03 00:48:49;;;;;;;8.40;5.55;;;11.20;99.90;;;;;;5018662;28;20075;-73
2022/06/03 00:51:23;;;;;;;8.40;5.55;;;11.10;99.90;;;;;;5016651;28;20120;-73
2022/06/03 00:54:38;;;;;;;7.57;5.95;;;10.90;99.90;;;;;;5027423;28;20028;-73
2022/06/03 00:57:28;;;;;;;8.48;5.68;;;10.90;99.90;;;;;;5026496;28;20034;-73
2022/06/03 01:00:12;;;;;;;7.88;6.28;;;10.80;99.90;;;;;;5025663;28;20045;-73
2022/06/03 01:03:08;;;;;;;6.40;5.78;;;10.70;99.90;;;;;;5012822;28;20044;-73
2022/06/03 01:05:53;;;;;;;6.38;5.78;;;10.70;99.90;;;;;;5026078;28;20061;-73
2022/06/03 01:08:24;;;;;;;6.43;5.28;;;10.60;99.90;;;;;;5034964;28;20034;-73
2022/06/03 01:10:58;;;;;;;;;;;10.50;99.90;;;;;;5025160;28;20037;-73
2022/06/03 01:13:48;;;;;;;6.95;5.53;;;10.60;99.90;;;;;;5019942;28;20456;-73
2022/06/03 01:16:26;;;;;;;6.30;5.47;;;10.50;99.90;;;;;;5027252;28;20049;-73
2022/06/03 01:19:18;;;;;;;7.13;5.43;;;10.50;99.90;;;;;;5022896;28;20040;-73
2022/06/03 01:21:58;;;;;;;10.65;5.93;;;10.50;99.90;;;;;;4998580;28;20219;-73
2022/06/03 01:24:24;;;;;;;7.63;5.30;;;10.50;99.90;;;;;;5026514;28;20059;-73
2022/06/03 01:27:09;;;;;;;6.85;5.82;;;10.50;99.90;;;;;;5032378;28;20052;-73
2022/06/03 01:29:47;;;;;;;8.88;6.68;;;10.50;99.90;;;;;;5025592;28;20037;-73
2022/06/03 01:32:38;;;;;;;10.25;6.47;;;10.50;99.90;;;;;;5027067;28;20472;-73
2022/06/03 01:35:43;;;;;;;7.75;5.90;;;10.40;99.90;;;;;;5010297;28;20025;-73
2022/06/03 01:38:43;;;;;;;11.52;5.82;;;10.40;99.90;;;;;;4992838;28;20053;-73
2022/06/03 01:41:29;;;;;;;6.88;5.32;;;10.40;99.90;;;;;;5026968;28;20025;-73
2022/06/03 01:44:11;;;;;;;6.03;5.10;;;10.50;99.90;;;;;;5025038;28;20106;-73
2022/06/03 01:47:19;;;;;;;9.32;5.50;;;10.50;99.90;;;;;;5001153;28;20138;-73
2022/06/03 01:49:50;;;;;;;7.53;5.55;;;10.60;99.90;;;;;;5007682;28;20044;-73
2022/06/03 01:52:29;;;;;;;5.82;4.20;;;10.70;99.90;;;;;;5012034;28;20041;-73
2022/06/03 01:55:32;;;;;;;6.50;4.72;;;10.70;99.90;;;;;;5021457;28;20033;-74
2022/06/03 01:58:16;;;;;;;7.30;4.95;;;10.80;99.90;;;;;;5018474;28;20041;-73
2022/06/03 02:01:17;;;;;;;7.88;5.05;;;10.80;99.90;;;;;;4999781;28;20041;-73
2022/06/03 02:04:04;;;;;;;8.95;5.45;;;10.90;99.90;;;;;;5022407;28;20409;-73
2022/06/03 02:06:47;;;;;;;6.55;4.70;;;10.90;99.90;;;;;;5016505;28;20492;-73
2022/06/03 02:09:44;;;;;;;7.75;5.13;;;10.90;99.90;;;;;;5023648;28;20037;-73
2022/06/03 02:12:12;;;;;;;7.55;4.97;;;10.90;99.90;;;;;;5024458;28;20029;-74
2022/06/03 02:14:56;;;;;;;7.75;5.50;;;10.90;99.90;;;;;;5026966;28;20032;-73
2022/06/03 02:17:58;;;;;;;5.78;4.85;;;10.80;99.90;;;;;;5022399;28;20056;-74
2022/06/03 02:20:45;;;;;;;8.20;5.32;;;10.80;99.90;;;;;;5024701;28;20057;-73
2022/06/03 02:23:26;;;;;;;6.95;5.50;;;10.80;99.90;;;;;;5034794;28;20327;-74
2022/06/03 02:25:54;;;;;;;5.95;5.18;;;10.80;99.90;;;;;;5010080;28;20041;-73
2022/06/03 02:30:24;;;;;;;6.57;5.85;;;10.70;99.90;;;;;;5017168;28;20478;-73
2022/06/03 02:32:02;;;;;;;10.05;5.18;;;10.60;99.90;;;;;;5031633;28;20117;-73
2022/06/03 02:34:49;;;;;;;7.90;5.55;;;10.50;99.90;;;;;;4999750;28;20121;-72
2022/06/03 02:37:39;;;;;;;9.18;5.65;;;10.40;99.90;;;;;;5018020;28;20025;-73
2022/06/03 02:40:35;;;;;;;8.35;5.00;;;10.30;99.90;;;;;;5012895;28;20033;-73
2022/06/03 02:43:42;;;;;;;8.15;5.75;;;10.30;99.90;;;;;;5019791;28;20021;-72
2022/06/03 02:46:13;;;;;;;8.43;5.13;;;10.20;99.90;;;;;;5013271;28;20120;-72
2022/06/03 02:48:56;;;;;;;7.25;5.50;;;10.10;99.90;;;;;;5030930;28;20100;-73
2022/06/03 02:51:40;;;;;;;9.90;6.18;;;10.00;99.90;;;;;;5032866;28;20536;-73
2022/06/03 02:54:34;;;;;;;8.65;6.45;;;10.00;99.90;;;;;;5025318;28;20108;-72
2022/06/03 02:57:18;;;;;;;8.63;5.97;;;10.00;99.90;;;;;;5024956;28;20033;-73
2022/06/03 03:00:09;;;;;;;7.93;6.20;;;10.00;99.90;;;;;;5020578;28;20048;-73
2022/06/03 03:02:51;;;;;;;10.63;6.47;;;9.90;99.90;;;;;;5025841;28;20020;-73
2022/06/03 03:05:37;;;;;;;11.02;6.47;;;10.00;99.90;;;;;;5026506;28;20029;-73
2022/06/03 03:08:15;;;;;;;9.15;5.93;;;10.00;99.90;;;;;;5035838;28;20044;-73
2022/06/03 03:11:31;;;;;;;7.05;6.22;;;10.10;99.90;;;;;;5003559;28;20034;-73
2022/06/03 03:14:43;;;;;;;10.88;6.68;;;10.10;99.90;;;;;;5007734;28;20069;-73
2022/06/03 03:17:44;;;;;;;11.23;6.65;;;10.20;99.90;;;;;;5027159;28;20115;-73
2022/06/03 03:20:28;;;;;;;9.10;5.65;;;10.20;99.90;;;;;;4996237;28;20563;-73
2022/06/03 03:23:30;;;;;;;9.82;5.78;;;10.20;99.90;;;;;;5023735;28;20052;-73
2022/06/03 03:26:08;;;;;;;10.15;5.65;;;10.20;99.90;;;;;;5018251;28;20025;-73
2022/06/03 03:28:52;;;;;;;9.70;5.60;;;10.20;99.90;;;;;;5030596;28;20037;-73
2022/06/03 03:31:55;;;;;;;5.93;5.30;;;10.20;99.90;;;;;;5026335;28;20034;-73
2022/06/03 03:34:29;;;;;;;6.50;5.07;;;10.20;99.90;;;;;;5015739;28;20034;-73
2022/06/03 03:37:07;;;;;;;10.02;5.50;;;10.10;99.90;;;;;;5016395;28;20651;-73
2022/06/03 03:39:45;;;;;;;8.10;6.07;;;10.10;99.90;;;;;;5021620;28;20034;-72
2022/06/03 03:42:10;;;;;;;6.97;5.82;;;10.00;99.90;;;;;;5026480;28;20021;-73
2022/06/03 03:44:56;;;;;;;11.73;5.93;;;10.00;99.90;;;;;;5030999;28;20393;-72
2022/06/03 03:47:46;;;;;;;9.80;6.25;;;9.90;99.90;;;;;;5013592;28;20515;-73
2022/06/03 03:50:30;;;;;;;11.55;6.25;;;9.90;99.90;;;;;;5022801;28;20108;-72
2022/06/03 03:53:11;;;;;;;8.30;5.95;;;9.90;99.90;;;;;;5025416;28;20103;-72
2022/06/03 03:55:54;;;;;;;8.75;6.47;;;9.90;99.90;;;;;;5021042;28;20043;-73
2022/06/03 03:58:33;;;;;;;12.32;6.30;;;9.90;99.90;;;;;;5022391;28;20039;-73
2022/06/03 04:00:59;;;;;;;8.98;6.32;;;10.00;99.90;;;;;;5027010;28;20590;-73
2022/06/03 04:03:46;;;;;;;14.38;7.25;;;10.10;99.90;;;;;;5017948;28;20025;-72
2022/06/03 04:06:40;;;;;;;10.95;6.45;;;10.20;99.90;;;;;;5029320;28;20103;-72
2022/06/03 04:09:40;;;;;;;11.07;6.97;;;10.20;99.90;;;;;;5004881;28;20029;-73
2022/06/03 04:12:14;;;;;;;10.90;6.50;;;10.30;99.90;;;;;;5007660;28;20038;-73
2022/06/03 04:15:09;;;;;;;9.32;6.45;;;10.40;99.90;;;;;;5041657;28;20044;-72
2022/06/03 04:17:57;;;;;;;8.05;5.82;;;10.40;99.90;;;;;;5020813;28;20128;-73
2022/06/03 04:20:51;;;;;;;7.38;5.88;;;10.40;99.90;;;;;;5008025;28;20683;-72
2022/06/03 04:23:56;;;;;;;7.63;5.32;;;10.50;99.90;;;;;;5020560;28;20064;-73
2022/06/03 04:26:38;;;;;;;9.38;5.45;;;10.60;99.90;;;;;;4999429;28;20037;-73
2022/06/03 04:29:34;;;;;;;;;;;10.60;99.90;;;;;;5011441;28;20650;-73
2022/06/03 04:32:09;;;;;;;4.90;4.30;;;10.70;99.90;;;;;;5022327;28;20378;-73
2022/06/03 04:34:53;;;;;;;6.95;5.07;;;10.80;99.90;;;;;;5025104;28;20079;-73
2022/06/03 04:37:52;;;;;;;7.18;4.95;;;10.90;99.90;;;;;;5021551;28;20036;-73
2022/06/03 04:40:56;;;;;;;7.80;5.30;;;11.00;99.90;;;;;;5024982;28;20041;-73
2022/06/03 04:43:40;;;;;;;7.63;4.63;;;11.20;99.90;;;;;;5030143;28;20585;-73
2022/06/03 04:46:14;;;;;;;5.40;4.90;;;11.30;99.90;;;;;;5020816;28;20412;-73
2022/06/03 04:49:00;;;;;;;8.70;4.55;;;11.40;99.90;;;;;;5020132;28;20536;-73
2022/06/03 04:51:50;;;;;;;7.82;4.85;;;11.60;99.90;;;;;;5030436;28;20499;-73
2022/06/03 04:54:34;;;;;;;9.32;4.68;;;11.70;99.90;;;;;;5027825;28;20020;-73
2022/06/03 04:57:08;;;;;;;6.00;4.70;;;11.80;99.90;;;;;;5025836;28;20043;-73
2022/06/03 05:00:01;;;;;;;9.60;4.63;;;11.80;99.90;;;;;;5015832;28;20112;-73
2022/06/03 05:03:04;;;;;;;4.57;4.13;;;11.70;99.90;;;;;;5025114;28;20418;-73
2022/06/03 05:05:55;;;;;;;6.32;4.80;;;11.60;99.90;;;;;;5024724;28;20040;-73
2022/06/03 05:08:58;;;;;;;6.88;5.57;;;11.60;99.90;;;;;;5011973;28;20115;-73
2022/06/03 05:11:45;;;;;;;6.07;5.15;;;11.50;99.90;;;;;;5026016;28;20028;-73
2022/06/03 05:14:48;;;;;;;8.52;5.50;;;11.40;99.90;;;;;;5027447;28;20088;-72
2022/06/03 05:17:32;;;;;;;7.50;5.78;;;11.40;99.90;;;;;;5013924;28;20500;-73
2022/06/03 05:20:18;;;;;;;8.65;6.40;;;11.40;99.90;;;;;;5012411;28;20057;-72
2022/06/03 05:22:59;;;;;;;9.80;6.63;;;11.50;99.90;;;;;;5021831;28;20029;-73
2022/06/03 05:25:39;;;;;;;7.25;6.22;;;11.60;99.90;;;;;;5023309;28;20030;-73
2022/06/03 05:28:10;;;;;;;15.55;6.18;;;11.80;99.90;;;;;;5013753;28;20077;-73
2022/06/03 05:31:00;;;;;;;8.65;5.93;;;11.90;99.90;;;;;;5017734;28;20029;-73
2022/06/03 05:33:53;;;;;;;6.50;5.60;;;12.10;99.90;;;;;;5023287;28;20037;-73
2022/06/03 05:36:29;;;;;;;7.72;6.00;;;12.20;99.90;;;;;;5018149;28;20057;-73
2022/06/03 05:39:23;;;;;;;12.43;6.97;;;12.40;99.90;;;;;;5023948;28;20033;-73
2022/06/03 05:42:29;;;;;;;10.27;6.07;;;12.60;99.90;;;;;;5005178;28;20588;-73
2022/06/03 05:45:17;;;;;;;12.20;4.97;;;12.80;99.90;;;;;;5023456;28;20507;-73
2022/06/03 05:48:04;;;;;;;8.48;5.18;;;12.80;99.90;;;;;;5002747;28;20044;-73
2022/06/03 05:50:51;;;;;;;16.63;7.03;;;12.80;99.90;;;;;;5006640;28;20573;-73
2022/06/03 05:53:22;;;;;;;11.75;5.95;;;12.80;99.90;;;;;;5018723;28;20028;-73
2022/06/03 05:56:06;;;;;;;;;;;12.70;99.90;;;;;;5024006;28;20520;-73
2022/06/03 05:58:34;;;;;;;7.03;5.35;;;12.70;99.90;;;;;;5025207;28;19943;-73
2022/06/03 06:01:45;;;;;;;11.25;6.50;;;12.80;99.90;;;;;;5010781;28;20052;-73
2022/06/03 06:04:48;;;;;;;13.27;7.63;;;12.80;99.90;;;;;;5024590;28;20177;-73
2022/06/03 06:07:44;;;;;;;12.40;6.05;;;12.70;99.90;;;;;;5007343;28;20029;-73
2022/06/03 06:10:28;;;;;;;9.68;6.30;;;12.70;99.90;;;;;;5020538;28;20025;-73
2022/06/03 06:13:05;;;;;;;12.63;6.63;;;12.70;99.90;;;;;;5021809;28;20025;-73
2022/06/03 06:15:48;;;;;;;8.57;6.38;;;12.70;99.90;;;;;;5024664;28;20494;-73
2022/06/03 06:18:50;;;;;;;11.57;6.07;;;12.70;99.90;;;;;;5014313;28;20045;-73
2022/06/03 06:21:37;;;;;;;11.75;7.20;;;12.80;99.90;;;;;;5017712;28;20037;-73
2022/06/03 06:24:34;;;;;;;12.98;8.63;;;12.90;99.90;;;;;;5022918;28;20095;-73
2022/06/03 06:27:03;;;;;;;9.07;6.70;;;13.10;99.90;;;;;;4991825;28;20117;-73
2022/06/03 06:30:12;;;;;;;13.10;8.30;;;13.30;99.90;;;;;;5025424;28;20030;-73
2022/06/03 06:32:50;;;;;;;15.27;7.95;;;13.40;99.90;;;;;;5023345;28;20152;-73
2022/06/03 06:35:38;;;;;;;13.32;8.55;;;13.70;99.90;;;;;;5023496;28;20428;-73
2022/06/03 06:38:08;;;;;;;63.05;35.00;;;13.80;99.90;;;;;;5019002;28;20539;-73
2022/06/03 06:41:10;;;;;;;13.63;8.02;;;13.90;99.90;;;;;;5014068;28;20485;-73
2022/06/03 06:43:45;;;;;;;16.83;8.73;;;14.00;99.90;;;;;;5014037;28;20044;-73
2022/06/03 06:46:47;;;;;;;10.15;7.80;;;14.00;99.90;;;;;;5027705;28;20079;-74
2022/06/03 06:49:25;;;;;;;11.82;8.02;;;14.20;99.90;;;;;;5013602;28;20091;-73
2022/06/03 06:51:57;;;;;;;11.02;7.43;;;14.50;99.90;;;;;;5021489;28;20028;-73
2022/06/03 06:54:57;;;;;;;11.13;7.07;;;14.70;99.90;;;;;;5035226;28;20054;-74
2022/06/03 06:57:34;;;;;;;15.38;7.50;;;14.80;99.90;;;;;;5027171;28;20576;-74
2022/06/03 06:59:59;;;;;;;9.68;6.28;;;14.90;99.90;;;;;;5015934;28;20046;-74
2022/06/03 07:02:31;;;;;;;9.88;6.72;;;15.20;99.90;;;;;;5021385;28;20029;-74
2022/06/03 07:05:29;;;;;;;6.60;4.45;;;15.40;99.90;;;;;;5012603;28;20026;-74
2022/06/03 07:08:16;;;;;;;8.57;5.40;;;15.90;99.90;;;;;;5017497;28;20030;-73
2022/06/03 07:10:48;;;;;;;9.90;5.95;;;16.70;99.90;;;;;;5016078;28;20041;-74
2022/06/03 07:13:39;;;;;;;8.82;5.38;;;17.30;99.90;;;;;;5008544;28;20121;-74
2022/06/03 07:19:47;;;;;;;9.35;5.93;;;17.80;99.90;;;;;;5006802;28;20044;-72
2022/06/03 07:22:41;;;;;;;7.10;3.75;;;18.80;99.90;;;;;;5006007;28;20037;-72
2022/06/03 07:25:30;;;;;;;5.75;3.75;;;19.00;99.90;;;;;;5003436;28;20026;-71
2022/06/03 07:28:14;;;;;;;8.77;6.40;;;19.10;99.90;;;;;;5023938;28;20480;-72
2022/06/03 07:31:19;;;;;;;6.38;5.78;;;20.30;97.40;;;;;;5025395;28;20029;-73
2022/06/03 07:34:01;;;;;;;5.32;4.15;;;22.00;90.80;;;;;;5004447;28;20484;-73
2022/06/03 07:36:39;;;;;;;6.65;4.47;;;23.10;78.00;;;;;;5023899;28;20161;-73
2022/06/03 07:39:23;;;;;;;5.22;3.67;;;23.50;75.60;;;;;;5013393;28;20048;-72
2022/06/03 07:41:52;;;;;;;6.70;3.90;;;23.40;76.10;;;;;;5003357;28;20319;-72
2022/06/03 07:44:44;;;;;;;6.47;5.20;;;25.30;68.20;;;;;;5000541;28;20061;-72
2022/06/03 07:47:11;;;;;;;5.45;3.72;;;29.20;53.50;;;;;;4997422;28;20199;-70
2022/06/03 07:49:38;;;;;;;5.40;4.30;;;31.30;44.90;;;;;;5000360;28;20037;-71
2022/06/03 07:52:11;;;;;;;8.52;3.13;;;31.50;42.80;;;;;;5002068;28;20088;-70
2022/06/03 07:54:50;;;;;;;4.82;3.83;;;30.40;43.20;;;;;;5000662;28;20048;-72
2022/06/03 07:57:22;;;;;;;7.75;3.03;;;28.80;47.30;;;;;;4998675;28;20026;-72
2022/06/03 07:59:49;;;;;;;4.47;2.72;;;27.20;48.90;;;;;;4996842;28;20037;-72
2022/06/03 08:02:17;;;;;;;8.75;4.75;;;26.40;55.50;;;;;;5000723;28;20379;-72
2022/06/03 08:04:46;;;;;;;4.00;3.60;;;25.80;54.40;;;;;;5009486;28;20033;-72
2022/06/03 08:13:14;;;;;;;4.75;2.60;;;24.60;71.40;;;;;;5020611;28;20592;-72
2022/06/03 08:16:02;;;;;;;3.72;2.65;;;25.30;67.90;;;;;;4998762;28;20909;-72
2022/06/03 08:18:40;;;;;;;3.33;2.05;;;25.20;65.00;;;;;;4996767;28;20120;-72
2022/06/03 08:21:11;;;;;;;4.60;2.40;;;25.00;68.30;;;;;;4997246;28;20030;-72
2022/06/03 08:23:38;;;;;;;3.72;2.33;;;25.30;66.30;;;;;;4997575;28;20029;-72
2022/06/03 08:26:12;;;;;;;2.42;1.90;;;26.80;56.90;;;;;;5006983;28;20030;-72
2022/06/03 08:28:43;;;;;;;3.42;2.13;;;28.30;51.70;;;;;;5000024;28;20037;-72
2022/06/03 08:31:08;;;;;;;5.13;2.45;;;29.00;50.80;;;;;;5011904;28;20036;-72
2022/06/03 08:33:46;;;;;;;2.75;1.63;;;31.30;48.50;;;;;;5018803;28;20033;-72
2022/06/03 08:36:16;;;;;;;5.75;3.22;;;33.40;42.30;;;;;;4998892;28;20222;-72
2022/06/03 08:38:47;;;;;;;2.53;1.27;;;34.60;37.60;;;;;;4991469;28;21013;-73
2022/06/03 08:41:13;;;;;;;3.83;2.40;;;33.10;39.40;;;;;;4976138;28;20481;-73
2022/06/03 08:44:08;;;;;;;3.38;2.15;;;33.10;40.80;;;;;;5019539;28;20034;-73
2022/06/03 08:47:12;;;;;;;3.28;1.90;;;34.60;35.50;;;;;;5010485;28;20033;-73
2022/06/03 08:49:58;;;;;;;4.20;1.80;;;35.80;32.20;;;;;;5036617;28;20467;-73
2022/06/03 08:52:34;;;;;;;2.15;1.95;;;36.50;32.60;;;;;;5037023;28;20043;-73
2022/06/03 08:55:05;;;;;;;2.58;1.67;;;36.40;34.10;;;;;;5025804;28;20600;-73
2022/06/03 08:57:40;;;;;;;1.58;1.20;;;37.10;34.10;;;;;;5018306;28;20037;-73
2022/06/03 09:00:25;;;;;;;2.55;1.02;;;36.20;34.00;;;;;;5009574;28;21770;-72
2022/06/03 09:03:06;;;;;;;2.97;1.45;;;36.20;33.50;;;;;;5006258;28;20037;-73
2022/06/03 09:05:46;;;;;;;2.43;1.40;;;35.60;34.20;;;;;;5008803;28;20025;-73
2022/06/03 09:08:33;;;;;;;3.40;1.20;;;35.60;30.20;;;;;;5008499;28;20286;-72
2022/06/03 09:11:03;;;;;;;1.10;1.00;;;36.00;35.20;;;;;;5006910;28;20033;-73
2022/06/03 09:13:42;;;;;;;1.50;1.40;;;35.70;31.80;;;;;;5002962;28;20034;-73
2022/06/03 09:16:11;;;;;;;1.23;1.00;;;35.10;30.80;;;;;;5011220;28;20431;-74
2022/06/03 09:18:45;;;;;;;1.13;0.95;;;35.00;28.40;;;;;;5018189;28;20055;-73
2022/06/03 09:21:13;;;;;;;3.60;1.10;;;35.00;30.80;;;;;;5001770;28;20200;-73
2022/06/03 09:23:43;;;;;;;2.53;1.00;;;36.10;30.00;;;;;;5021746;28;20061;-73
2022/06/03 09:26:29;;;;;;;6.78;1.33;;;36.30;29.60;;;;;;5007273;28;20033;-74
2022/06/03 09:28:57;;;;;;;4.18;1.35;;;36.40;30.00;;;;;;4994613;28;20512;-74
2022/06/03 09:31:24;;;;;;;3.13;1.10;;;36.30;27.60;;;;;;4997810;28;20061;-74
2022/06/03 09:33:51;;;;;;;1.30;0.90;;;36.40;26.60;;;;;;4998831;28;20435;-74
2022/06/03 09:36:18;;;;;;;0.88;0.88;;;36.50;28.70;;;;;;4998318;28;20045;-73
2022/06/03 09:39:08;;;;;;;1.85;0.85;;;36.30;31.20;;;;;;4993897;28;20021;-74
2022/06/03 09:41:38;;;;;;;2.55;1.00;;;36.40;30.70;;;;;;4994629;28;20289;-74
2022/06/03 09:44:06;;;;;;;2.53;0.70;;;35.90;29.80;;;;;;4983333;28;20033;-74
2022/06/03 09:46:34;;;;;;;0.98;0.88;;;35.80;30.30;;;;;;4987687;28;20034;-74
2022/06/03 09:49:01;;;;;;;2.03;0.93;;;35.10;27.00;;;;;;4993774;28;20116;-73
2022/06/03 09:54:40;;;;;;;0.90;0.65;;;35.10;35.10;;;;;;4991646;28;20485;-74
2022/06/03 09:57:09;;;;;;;3.63;0.90;;;35.30;28.70;;;;;;4988261;28;20052;-73
2022/06/03 09:59:38;;;;;;;1.25;0.90;;;35.40;29.70;;;;;;4990073;28;21069;-74
2022/06/03 10:02:06;;;;;;;0.70;0.65;;;35.10;30.00;;;;;;4994709;28;20099;-74
2022/06/03 10:04:32;;;;;;;2.67;1.00;;;34.60;30.50;;;;;;4994217;28;20605;-74
2022/06/03 10:07:00;;;;;;;2.33;1.20;;;34.20;31.10;;;;;;4998635;28;20041;-74
2022/06/03 10:18:02;;;;;;;2.78;1.05;;;33.50;28.70;;;;;;4990438;28;20056;-74
2022/06/03 10:20:27;;;;;;;;;;;33.70;30.80;;;;;;4991747;28;20032;-72
2022/06/03 10:22:54;;;;;;;0.75;0.75;;;33.80;33.10;;;;;;5002439;28;19913;-73
2022/06/03 10:25:20;;;;;;;1.35;1.20;;;33.70;29.00;;;;;;4999920;28;20029;-75
2022/06/03 10:27:45;;;;;;;2.63;0.70;;;33.80;32.90;;;;;;5026919;28;20099;-74
2022/06/03 10:30:13;;;;;;;1.52;0.80;;;33.70;31.00;;;;;;5019836;28;20440;-74
2022/06/03 10:32:39;;;;;;;2.55;1.10;;;33.60;29.90;;;;;;5027562;28;20045;-74
2022/06/03 10:35:13;;;;;;;2.67;0.93;;;34.00;31.90;;;;;;5016067;28;20037;-73
2022/06/03 10:37:48;;;;;;;1.05;1.02;;;33.40;28.60;;;;;;5011726;28;20508;-74
2022/06/03 10:40:14;;;;;;;2.55;0.60;;;33.40;33.80;;;;;;5026057;28;20476;-74
2022/06/03 10:42:45;;;;;;;1.00;0.70;;;33.30;31.20;;;;;;5011702;28;20112;-74
2022/06/03 10:45:11;;;;;;;1.42;0.70;;;32.60;35.20;;;;;;5021422;28;20025;-74
2022/06/03 10:47:39;;;;;;;2.40;1.10;;;32.50;34.20;;;;;;5025659;28;20028;-74
2022/06/03 10:50:25;;;;;;;1.58;1.08;;;32.10;35.90;;;;;;5028409;28;20041;-74
2022/06/03 11:02:16;;;;;;;2.72;1.38;;;33.70;33.10;;;;;;4909514;29;20036;-74
2022/06/03 11:04:41;;;;;;;4.63;1.20;;;33.50;29.50;;;;;;4915659;29;20044;-74
2022/06/03 11:07:30;;;;;;;1.38;1.27;;;31.60;33.10;;;;;;4958338;28;20449;-73
2022/06/03 11:10:13;;;;;;;1.92;1.30;;;31.60;35.00;;;;;;5026804;28;20048;-74
2022/06/03 11:12:40;;;;;;;2.63;1.55;;;31.80;39.40;;;;;;5018922;28;20032;-74
2022/06/03 11:15:36;;;;;;;2.25;1.40;;;31.80;34.60;;;;;;5006917;28;20435;-72
2022/06/03 11:18:27;;;;;;;1.90;1.60;;;32.00;35.50;;;;;;5031291;28;20072;-74
2022/06/03 11:20:54;;;;;;;1.42;1.30;;;32.20;36.30;;;;;;5027520;28;20057;-74
2022/06/03 11:23:20;;;;;;;2.55;1.25;;;31.70;35.20;;;;;;5026359;28;20041;-74
2022/06/03 11:25:49;;;;;;;1.10;1.10;;;31.60;38.70;;;;;;5033997;28;20112;-73
2022/06/03 11:28:30;;;;;;;1.48;0.90;;;31.30;35.70;;;;;;5028757;28;20620;-74
2022/06/03 11:30:55;;;;;;;7.23;1.40;;;31.10;34.80;;;;;;4999993;28;20041;-74
2022/06/03 11:33:25;;;;;;;1.98;1.15;;;30.50;37.40;;;;;;5027161;28;20095;-74
2022/06/03 11:36:02;;;;;;;2.05;1.20;;;30.00;38.00;;;;;;5020681;28;20551;-72
2022/06/03 11:38:34;;;;;;;2.30;1.17;;;29.50;36.90;;;;;;5011079;28;20037;-72
2022/06/03 11:41:08;;;;;;;2.33;1.02;;;28.90;38.80;;;;;;5025819;28;20033;-72
2022/06/03 11:43:41;;;;;;;3.08;1.00;;;28.80;41.40;;;;;;5030844;28;20032;-73
2022/06/03 11:46:23;;;;;;;2.53;1.40;;;28.50;44.60;;;;;;5028321;28;20025;-74
2022/06/03 11:48:52;;;;;;;3.30;1.20;;;28.60;52.40;;;;;;5015224;28;20052;-74
2022/06/03 11:51:18;;;;;;;1.63;1.25;;;28.50;38.50;;;;;;5014817;28;20061;-73
2022/06/03 11:53:47;;;;;;;2.30;1.20;;;28.40;41.20;;;;;;4999207;28;20108;-72
2022/06/03 11:56:16;;;;;;;3.65;1.30;;;28.10;40.90;;;;;;5004545;28;20043;-73
2022/06/03 11:59:01;;;;;;;2.50;1.13;;;28.30;45.20;;;;;;5016595;28;20124;-74
2022/06/03 12:01:49;;;;;;;4.63;2.20;;;28.30;44.70;;;;;;5004839;28;20278;-74
2022/06/03 12:04:34;;;;;;;2.20;1.80;;;28.20;42.10;;;;;;5017017;28;20036;-74
2022/06/03 12:07:08;;;;;;;5.68;2.20;;;28.40;43.00;;;;;;5002285;28;20390;-74
2022/06/03 12:09:45;;;;;;;3.58;2.00;;;28.20;44.80;;;;;;5002468;28;20048;-74
2022/06/03 12:15:28;;;;;;;4.93;1.83;;;28.20;43.50;;;;;;5018165;28;20087;-71
2022/06/03 12:17:54;;;;;;;3.05;1.50;;;28.30;44.10;;;;;;5021995;28;20037;-73
2022/06/03 12:20:32;;;;;;;2.30;1.50;;;28.50;45.40;;;;;;5022957;28;20395;-74
2022/06/03 12:23:13;;;;;;;2.28;1.70;;;28.70;44.70;;;;;;5015680;28;20078;-73
2022/06/03 12:25:54;;;;;;;3.03;2.08;;;29.00;46.40;;;;;;5011976;28;20040;-74
2022/06/03 12:28:26;;;;;;;2.20;1.75;;;29.00;42.30;;;;;;5014284;28;20032;-72
2022/06/03 12:30:53;;;;;;;3.28;1.90;;;28.80;41.80;;;;;;5012204;28;20040;-74
2022/06/03 12:33:34;;;;;;;2.95;2.00;;;28.80;42.60;;;;;;5006786;28;20030;-74
2022/06/03 12:36:08;;;;;;;2.30;2.10;;;28.40;44.20;;;;;;5010617;28;20536;-74
2022/06/03 12:38:43;;;;;;;2.55;1.73;;;28.10;45.50;;;;;;5024699;28;20033;-74
2022/06/03 12:41:10;;;;;;;3.33;1.63;;;28.20;57.10;;;;;;5040554;28;20093;-74
2022/06/03 12:43:44;;;;;;;2.83;1.73;;;28.40;47.60;;;;;;5039257;28;20033;-74
2022/06/03 12:46:48;;;;;;;2.35;1.60;;;28.10;41.90;;;;;;5037214;28;20036;-73
2022/06/03 12:49:37;;;;;;;3.28;1.63;;;28.20;45.40;;;;;;5035431;28;20036;-73
2022/06/03 12:52:08;;;;;;;2.55;2.17;;;27.50;45.60;;;;;;5032176;28;20037;-73
2022/06/03 12:54:57;;;;;;;2.80;2.50;;;26.60;42.90;;;;;;5021042;28;20035;-73
2022/06/03 12:57:48;;;;;;;3.76;2.15;;;25.80;45.00;;;;;;5000849;28;10000978;-72
2022/06/03 13:00:28;;;;;;;1.73;1.63;;;25.60;46.10;;;;;;5023455;28;20235;-73
2022/06/03 13:03:00;;;;;;;2.88;2.50;;;25.50;49.70;;;;;;5036724;28;20036;-73
2022/06/03 13:05:36;;;;;;;2.03;1.85;;;25.60;48.00;;;;;;5039764;28;20460;-73
2022/06/03 13:08:28;;;;;;;2.58;2.30;;;25.50;49.30;;;;;;5025516;28;20035;-73
2022/06/03 13:10:54;;;;;;;;;;;26.00;49.90;;;;;;5032532;28;20103;-73
2022/06/03 13:13:31;;;;;;;4.45;2.72;;;26.10;50.40;;;;;;5029437;28;19912;-74
2022/06/03 13:16:34;;;;;;;2.15;1.98;;;26.80;46.10;;;;;;5038983;28;20021;-73
2022/06/03 13:19:12;;;;;;;2.97;1.95;;;27.20;50.50;;;;;;4995604;28;20072;-75
2022/06/03 13:22:03;;;;;;;5.28;2.20;;;28.20;43.30;;;;;;5033906;28;20397;-73
2022/06/03 13:24:41;;;;;;;6.07;2.10;;;28.50;45.20;;;;;;5025890;28;20037;-74
2022/06/03 13:27:09;;;;;;;3.60;2.00;;;28.20;43.10;;;;;;5025096;28;20037;-73
2022/06/03 13:29:50;;;;;;;2.50;2.30;;;28.20;47.80;;;;;;5028510;28;20198;-74
2022/06/03 13:32:34;;;;;;;3.63;2.60;;;27.90;45.30;;;;;;5023847;28;20033;-73
2022/06/03 13:35:14;;;;;;;3.42;2.60;;;27.20;45.30;;;;;;5033359;28;20042;-74
2022/06/03 13:38:10;;;;;;;3.05;2.17;;;27.10;45.80;;;;;;5036833;28;20025;-73
2022/06/03 13:40:38;;;;;;;3.08;2.00;;;26.80;46.80;;;;;;5031503;28;20029;-74
2022/06/03 13:43:18;;;;;;;5.75;2.25;;;26.40;46.20;;;;;;5035611;28;20670;-73
2022/06/03 13:45:56;;;;;;;5.25;2.25;;;26.40;47.50;;;;;;5036757;28;20287;-72
2022/06/03 13:48:27;;;;;;;2.47;2.10;;;25.90;46.20;;;;;;5027076;28;20498;-72
2022/06/03 13:50:53;;;;;;;3.97;2.08;;;25.90;48.10;;;;;;5036942;28;20047;-73
2022/06/03 13:53:26;;;;;;;4.65;2.45;;;26.00;49.00;;;;;;5038138;28;20124;-73
2022/06/03 13:56:03;;;;;;;1.60;1.50;;;25.80;48.30;;;;;;5037537;28;20094;-73
2022/06/03 13:58:40;;;;;;;2.58;1.90;;;25.80;48.90;;;;;;5039465;28;20021;-72
2022/06/03 14:01:18;;;;;;;2.58;1.90;;;25.80;48.00;;;;;;5032929;28;20030;-73
2022/06/03 14:04:02;;;;;;;1.83;1.60;;;25.70;47.40;;;;;;5025334;28;20212;-73
2022/06/03 14:06:34;;;;;;;2.47;1.80;;;25.80;46.30;;;;;;5025845;28;20021;-72
2022/06/03 14:09:09;;;;;;;4.72;2.38;;;25.70;46.70;;;;;;5035199;28;20045;-73
2022/06/03 14:11:43;;;;;;;5.15;2.15;;;25.30;43.20;;;;;;5032009;28;20531;-73
2022/06/03 14:14:22;;;;;;;2.50;1.90;;;24.90;43.60;;;;;;5037851;28;20036;-73
2022/06/03 14:16:58;;;;;;;4.15;2.10;;;24.50;47.30;;;;;;5039246;28;20049;-73
2022/06/03 14:19:56;;;;;;;5.32;2.10;;;24.40;47.20;;;;;;5022599;28;20032;-73
2022/06/03 14:22:36;;;;;;;3.53;2.08;;;24.20;46.50;;;;;;5024634;28;20044;-72
2022/06/03 14:25:17;;;;;;;5.10;2.17;;;24.00;49.70;;;;;;5038038;28;20032;-72
2022/06/03 14:28:21;;;;;;;2.23;1.80;;;23.90;47.00;;;;;;5033777;28;20126;-73
2022/06/03 14:30:50;;;;;;;2.75;1.95;;;23.60;51.20;;;;;;5003042;28;20760;-73
2022/06/03 14:33:17;;;;;;;2.00;1.90;;;23.40;53.60;;;;;;5037963;28;20520;-73